Time;durP1;ratioP1;P1;durP2;ratioP2;P2;SDS_P1;SDS_P2;PMS_P1;PMS_P2;Temp;Humidity;BMP_temperature;BMP_pressure;BME280_temperature;BME280_humidity;BME280_pressure;Samples;Min_cycle;Max_cycle;Signal;HPM_P1;HPM_P2
2021/12/26 00:01:18;;;;;;;8.25;2.33;;;-5.30;99.90;;;;;;5117134;27;20032;-66
2021/12/26 00:03:43;;;;;;;5.88;1.83;;;-5.30;99.90;;;;;;5094275;28;20043;-66
2021/12/26 00:06:21;;;;;;;5.13;1.75;;;-5.20;99.90;;;;;;5112079;28;20487;-66
2021/12/26 00:08:49;;;;;;;5.03;1.60;;;-5.10;99.90;;;;;;5106955;28;20484;-66
2021/12/26 00:11:17;;;;;;;5.50;1.80;;;-5.10;99.90;;;;;;5078033;28;20460;-66
2021/12/26 00:13:43;;;;;;;5.20;1.80;;;-5.20;99.90;;;;;;5078860;28;20024;-66
2021/12/26 00:16:09;;;;;;;3.90;1.63;;;-5.20;99.90;;;;;;5094565;28;20040;-66
2021/12/26 00:18:36;;;;;;;8.65;2.40;;;-5.10;99.90;;;;;;5097624;28;20031;-66
2021/12/26 00:21:03;;;;;;;6.45;2.13;;;-4.90;99.90;;;;;;5114628;28;20050;-66
2021/12/26 00:23:29;;;;;;;6.13;2.20;;;-5.00;99.90;;;;;;5117237;27;20040;-67
2021/12/26 00:25:55;;;;;;;9.50;2.00;;;-5.10;99.90;;;;;;5094019;28;20101;-66
2021/12/26 00:28:21;;;;;;;8.23;2.67;;;-5.00;99.90;;;;;;5077395;28;20036;-66
2021/12/26 00:30:46;;;;;;;10.05;2.80;;;-4.90;99.90;;;;;;5093925;28;20400;-66
2021/12/26 00:33:12;;;;;;;8.20;2.45;;;-4.90;99.90;;;;;;5077117;28;20044;-66
2021/12/26 00:35:38;;;;;;;11.60;3.05;;;-4.90;99.90;;;;;;5104935;28;20039;-66
2021/12/26 00:38:04;;;;;;;7.65;2.55;;;-4.80;99.90;;;;;;5097314;28;20039;-66
2021/12/26 00:40:31;;;;;;;8.05;2.33;;;-4.90;99.90;;;;;;5120811;27;20454;-66
2021/12/26 00:42:57;;;;;;;8.18;2.90;;;-4.90;99.90;;;;;;5093738;28;20043;-66
2021/12/26 00:45:23;;;;;;;8.93;3.15;;;-4.90;99.90;;;;;;5101103;28;20112;-66
2021/12/26 00:47:49;;;;;;;11.65;2.90;;;-4.80;99.90;;;;;;5097141;28;20040;-66
2021/12/26 00:50:19;;;;;;;6.53;2.58;;;-4.70;99.90;;;;;;5123029;27;20404;-66
2021/12/26 00:52:45;;;;;;;7.82;2.63;;;-5.00;99.90;;;;;;5090810;28;20028;-66
2021/12/26 00:55:14;;;;;;;6.53;2.17;;;-5.10;99.90;;;;;;5112790;28;20055;-66
2021/12/26 00:57:40;;;;;;;6.65;2.90;;;-5.10;99.90;;;;;;5096888;28;20122;-66
2021/12/26 01:00:10;;;;;;;5.50;2.28;;;-5.10;99.90;;;;;;5119503;27;20139;-66
2021/12/26 01:02:36;;;;;;;6.63;2.28;;;-5.10;99.90;;;;;;5109021;27;20039;-67
2021/12/26 01:05:03;;;;;;;6.82;2.58;;;-5.20;99.90;;;;;;5120046;27;20500;-67
2021/12/26 01:10:16;;;;;;;7.53;2.10;;;-5.20;99.90;;;;;;5100514;28;20071;-67
2021/12/26 01:12:42;;;;;;;8.38;2.55;;;-5.20;99.90;;;;;;5093225;28;20047;-67
2021/12/26 01:15:10;;;;;;;7.57;2.40;;;-5.20;99.90;;;;;;5137148;27;20040;-66
2021/12/26 01:17:39;;;;;;;4.70;2.13;;;-5.20;99.90;;;;;;5113557;28;20039;-67
2021/12/26 01:20:10;;;;;;;4.57;1.52;;;-5.20;99.90;;;;;;5112932;28;20458;-67
2021/12/26 01:22:37;;;;;;;5.45;1.65;;;-5.20;99.90;;;;;;5112710;28;20530;-67
2021/12/26 01:25:03;;;;;;;6.65;1.95;;;-5.10;99.90;;;;;;5102232;28;20036;-67
2021/12/26 01:27:29;;;;;;;4.68;1.65;;;-5.10;99.90;;;;;;5076097;28;20119;-67
2021/12/26 01:29:55;;;;;;;6.07;1.60;;;-5.20;99.90;;;;;;5109902;27;20166;-67
2021/12/26 01:32:21;;;;;;;4.68;1.80;;;-5.20;99.90;;;;;;5081982;28;20047;-67
2021/12/26 01:34:47;;;;;;;5.00;1.70;;;-5.20;99.90;;;;;;5095553;28;20039;-67
2021/12/26 01:37:14;;;;;;;3.90;1.40;;;-5.10;99.90;;;;;;5147511;27;20095;-67
2021/12/26 01:39:40;;;;;;;3.97;1.30;;;-5.20;99.90;;;;;;5092340;28;20058;-67
2021/12/26 01:42:08;;;;;;;3.88;1.50;;;-5.10;99.90;;;;;;5112855;28;20056;-67
2021/12/26 01:44:34;;;;;;;4.07;1.70;;;-5.10;99.90;;;;;;5095232;28;20031;-67
2021/12/26 01:47:01;;;;;;;4.88;1.40;;;-5.10;99.90;;;;;;5095871;28;20118;-67
2021/12/26 01:49:29;;;;;;;4.03;1.55;;;-5.10;99.90;;;;;;5128496;27;20058;-67
2021/12/26 01:51:57;;;;;;;3.58;1.70;;;-5.00;99.90;;;;;;5096226;28;20066;-67
2021/12/26 01:54:37;;;;;;;2.42;1.20;;;-5.10;99.90;;;;;;5089207;28;20123;-67
2021/12/26 01:57:05;;;;;;;3.65;1.23;;;-5.00;99.90;;;;;;5092717;28;20044;-67
2021/12/26 01:59:30;;;;;;;5.40;1.70;;;-5.10;99.30;;;;;;5082195;28;20063;-67
2021/12/26 02:01:58;;;;;;;4.22;1.55;;;-5.20;98.50;;;;;;5145298;27;20104;-67
2021/12/26 02:04:27;;;;;;;3.67;1.40;;;-5.20;98.80;;;;;;5120956;27;20043;-67
2021/12/26 02:06:55;;;;;;;5.88;1.65;;;-5.20;99.90;;;;;;5075770;28;20534;-67
2021/12/26 02:09:21;;;;;;;4.00;1.27;;;-5.20;99.90;;;;;;5093154;28;20088;-67
2021/12/26 02:11:46;;;;;;;7.20;1.70;;;-5.20;99.90;;;;;;5129785;27;20391;-67
2021/12/26 02:14:12;;;;;;;6.00;1.70;;;-5.20;99.90;;;;;;5094231;28;20393;-67
2021/12/26 02:16:37;;;;;;;4.13;1.40;;;-5.20;99.90;;;;;;5095477;28;20085;-67
2021/12/26 02:19:03;;;;;;;4.28;1.58;;;-5.20;99.90;;;;;;5128294;27;20480;-67
2021/12/26 02:24:25;;;;;;;3.25;1.30;;;-5.30;99.90;;;;;;5110241;28;20063;-67
2021/12/26 02:29:39;;;;;;;3.67;1.65;;;-5.30;99.60;;;;;;5093354;28;20400;-67
2021/12/26 02:32:05;;;;;;;4.93;1.42;;;-5.30;99.90;;;;;;5121389;27;20039;-67
2021/12/26 02:34:30;;;;;;;3.00;1.45;;;-5.30;99.90;;;;;;5093611;28;20122;-67
2021/12/26 02:36:56;;;;;;;4.97;1.33;;;-5.30;99.90;;;;;;5127860;28;20135;-67
2021/12/26 02:39:22;;;;;;;4.18;1.40;;;-5.30;99.50;;;;;;5095654;28;20400;-67
2021/12/26 02:41:48;;;;;;;4.97;1.70;;;-5.20;99.90;;;;;;5126383;28;20087;-67
2021/12/26 02:44:14;;;;;;;3.45;1.40;;;-5.30;99.90;;;;;;5126583;28;20436;-67
2021/12/26 02:46:43;;;;;;;2.67;1.13;;;-5.20;99.90;;;;;;5093024;28;20050;-67
2021/12/26 02:49:09;;;;;;;4.68;1.70;;;-5.10;99.90;;;;;;5100155;28;20143;-67
2021/12/26 02:51:34;;;;;;;6.22;2.13;;;-5.20;98.70;;;;;;5111100;28;20048;-67
2021/12/26 02:54:00;;;;;;;4.22;1.60;;;-5.30;97.70;;;;;;5104403;28;20115;-67
2021/12/26 02:56:26;;;;;;;5.05;1.40;;;-5.20;99.90;;;;;;5075087;28;20043;-67
2021/12/26 02:58:52;;;;;;;3.70;1.42;;;-5.20;98.80;;;;;;5097104;28;20111;-67
2021/12/26 03:01:24;;;;;;;3.15;1.27;;;-5.30;97.00;;;;;;5098317;28;20076;-67
2021/12/26 03:03:50;;;;;;;4.63;1.70;;;-5.30;97.70;;;;;;5092846;28;20032;-67
2021/12/26 03:06:34;;;;;;;5.70;1.52;;;-5.30;98.40;;;;;;5092034;28;20125;-67
2021/12/26 03:09:00;;;;;;;4.15;1.40;;;-5.20;98.50;;;;;;5075359;28;20047;-68
2021/12/26 03:11:26;;;;;;;3.88;1.48;;;-5.30;98.20;;;;;;5075340;28;20036;-68
2021/12/26 03:13:52;;;;;;;3.90;1.30;;;-5.30;98.20;;;;;;5092087;28;20024;-67
2021/12/26 03:16:18;;;;;;;4.53;1.55;;;-5.40;97.80;;;;;;5091689;28;20032;-68
2021/12/26 03:18:43;;;;;;;3.65;1.35;;;-5.50;97.80;;;;;;5092383;28;20718;-68
2021/12/26 03:21:09;;;;;;;5.70;1.60;;;-5.50;97.40;;;;;;5091366;28;20141;-68
2021/12/26 03:23:34;;;;;;;3.55;1.50;;;-5.40;99.20;;;;;;5091502;28;20408;-68
2021/12/26 03:26:03;;;;;;;3.72;1.30;;;-5.40;98.60;;;;;;5091528;28;20044;-67
2021/12/26 03:28:30;;;;;;;3.78;1.38;;;-5.40;97.70;;;;;;5091293;28;20070;-68
2021/12/26 03:30:56;;;;;;;4.97;1.58;;;-5.40;97.20;;;;;;5075552;28;20085;-68
2021/12/26 03:33:22;;;;;;;3.90;1.30;;;-5.40;98.60;;;;;;5091588;28;20040;-68
2021/12/26 03:35:48;;;;;;;2.92;1.60;;;-5.40;97.70;;;;;;5074856;28;20032;-68
2021/12/26 03:38:15;;;;;;;3.55;1.20;;;-5.40;98.90;;;;;;5076929;28;20047;-68
2021/12/26 03:40:42;;;;;;;4.38;1.30;;;-5.40;98.20;;;;;;5100500;28;20416;-68
2021/12/26 03:43:08;;;;;;;4.65;1.60;;;-5.50;97.90;;;;;;5095070;28;20040;-68
2021/12/26 03:45:34;;;;;;;5.85;1.70;;;-5.40;98.20;;;;;;5129165;27;20047;-68
2021/12/26 03:48:00;;;;;;;4.18;1.50;;;-5.50;98.00;;;;;;5105392;28;20405;-68
2021/12/26 03:50:28;;;;;;;3.97;1.73;;;-5.50;99.00;;;;;;5111516;28;20044;-68
2021/12/26 03:52:56;;;;;;;2.78;1.35;;;-5.40;98.50;;;;;;5094863;28;20510;-68
2021/12/26 03:55:25;;;;;;;3.65;1.45;;;-5.40;99.70;;;;;;5094737;28;20040;-68
2021/12/26 03:57:52;;;;;;;5.32;1.50;;;-5.30;99.30;;;;;;5099158;28;20434;-68
2021/12/26 04:00:18;;;;;;;3.80;1.50;;;-5.40;97.90;;;;;;5114427;28;20414;-68
2021/12/26 04:02:45;;;;;;;5.35;1.67;;;-5.50;98.40;;;;;;5114077;28;20063;-68
2021/12/26 04:05:12;;;;;;;4.80;1.70;;;-5.60;98.80;;;;;;5095556;28;20107;-68
2021/12/26 04:07:38;;;;;;;4.75;1.75;;;-5.60;99.10;;;;;;5113808;28;20035;-68
2021/12/26 04:10:06;;;;;;;4.45;1.65;;;-5.50;98.60;;;;;;5144895;27;20484;-68
2021/12/26 04:12:36;;;;;;;3.75;1.48;;;-5.40;99.70;;;;;;5077522;28;20038;-68
2021/12/26 04:15:05;;;;;;;4.18;1.63;;;-5.40;98.90;;;;;;5097129;28;20519;-68
2021/12/26 04:17:30;;;;;;;6.18;1.52;;;-5.40;99.60;;;;;;5097576;28;20042;-68
2021/12/26 04:19:56;;;;;;;5.18;2.00;;;-5.40;99.40;;;;;;5148394;27;20182;-68
2021/12/26 04:22:22;;;;;;;4.47;1.25;;;-5.40;99.10;;;;;;5077477;28;20044;-68
2021/12/26 04:24:48;;;;;;;3.85;1.63;;;-5.50;97.60;;;;;;5077517;28;20047;-68
2021/12/26 04:27:13;;;;;;;7.78;1.80;;;-5.40;99.90;;;;;;5130167;27;20039;-68
2021/12/26 04:29:39;;;;;;;5.20;1.70;;;-5.30;98.80;;;;;;5148414;27;20093;-68
2021/12/26 04:32:05;;;;;;;5.60;1.65;;;-5.30;98.10;;;;;;5111369;27;20047;-68
2021/12/26 04:34:31;;;;;;;5.95;1.80;;;-5.40;97.80;;;;;;5077151;28;20036;-68
2021/12/26 04:36:56;;;;;;;3.55;1.40;;;-5.50;97.70;;;;;;5089907;28;20047;-68
2021/12/26 04:39:22;;;;;;;4.70;1.67;;;-5.50;98.50;;;;;;5127847;27;20047;-68
2021/12/26 04:41:47;;;;;;;6.20;1.60;;;-5.60;99.10;;;;;;5114684;27;20047;-68
2021/12/26 04:44:13;;;;;;;5.53;2.00;;;-5.60;99.10;;;;;;5138880;27;20040;-68
2021/12/26 04:46:39;;;;;;;4.97;1.83;;;-5.60;98.70;;;;;;5095761;28;20032;-68
2021/12/26 04:49:05;;;;;;;4.25;1.70;;;-5.60;99.20;;;;;;5080027;28;20070;-68
2021/12/26 04:51:30;;;;;;;3.78;1.50;;;-5.60;99.90;;;;;;5115418;28;20092;-68
2021/12/26 04:53:56;;;;;;;5.18;1.90;;;-5.70;99.90;;;;;;5126308;27;20044;-68
2021/12/26 04:56:22;;;;;;;5.60;1.80;;;-5.70;99.80;;;;;;5132677;27;20044;-68
2021/12/26 04:58:47;;;;;;;5.03;1.60;;;-5.70;99.90;;;;;;5091855;28;20067;-68
2021/12/26 05:01:13;;;;;;;5.20;1.73;;;-5.70;99.90;;;;;;5132548;27;20462;-68
2021/12/26 05:03:39;;;;;;;3.28;1.55;;;-5.80;99.90;;;;;;5114145;28;20132;-68
2021/12/26 05:06:05;;;;;;;3.75;1.80;;;-5.70;99.90;;;;;;5113025;28;20040;-68
2021/12/26 05:08:31;;;;;;;5.15;2.00;;;-5.60;99.90;;;;;;5148036;27;20427;-68
2021/12/26 05:10:56;;;;;;;5.28;2.15;;;-5.70;99.90;;;;;;5143094;27;20031;-68
2021/12/26 05:13:22;;;;;;;3.90;1.70;;;-5.60;99.90;;;;;;5130099;27;20126;-68
2021/12/26 05:15:48;;;;;;;6.22;2.22;;;-5.60;99.90;;;;;;5086841;28;20499;-68
2021/12/26 05:18:14;;;;;;;4.25;1.92;;;-5.70;99.90;;;;;;5111808;28;20514;-68
2021/12/26 05:20:40;;;;;;;5.07;1.77;;;-5.70;99.90;;;;;;5109951;28;20036;-68
2021/12/26 05:23:05;;;;;;;6.22;2.30;;;-5.70;99.90;;;;;;5129180;27;20054;-68
2021/12/26 05:25:31;;;;;;;4.72;1.98;;;-5.80;99.90;;;;;;5132144;27;20028;-68
2021/12/26 05:27:56;;;;;;;4.10;1.88;;;-5.80;99.90;;;;;;5115972;27;20488;-68
2021/12/26 05:30:23;;;;;;;6.13;1.85;;;-5.70;99.90;;;;;;5098062;28;20035;-68
2021/12/26 05:32:49;;;;;;;6.55;2.65;;;-5.70;99.90;;;;;;5091463;28;20050;-68
2021/12/26 05:35:16;;;;;;;6.47;2.13;;;-5.80;99.90;;;;;;5099184;28;20106;-68
2021/12/26 05:37:42;;;;;;;7.45;2.35;;;-5.70;99.90;;;;;;5083862;28;20043;-68
2021/12/26 05:40:10;;;;;;;5.82;2.15;;;-5.80;99.90;;;;;;5131967;27;20059;-68
2021/12/26 05:42:36;;;;;;;8.05;2.05;;;-5.80;99.90;;;;;;5077836;28;20051;-68
2021/12/26 05:45:04;;;;;;;5.20;2.03;;;-5.70;99.90;;;;;;5109179;27;20071;-68
2021/12/26 05:47:31;;;;;;;4.65;1.98;;;-5.70;99.90;;;;;;5113115;28;20122;-68
2021/12/26 05:49:57;;;;;;;4.20;1.90;;;-5.60;99.90;;;;;;5109660;28;20118;-68
2021/12/26 05:52:23;;;;;;;5.28;2.08;;;-5.60;99.90;;;;;;5098293;28;20032;-68
2021/12/26 05:54:49;;;;;;;4.95;2.20;;;-5.70;99.90;;;;;;5126125;27;20543;-68
2021/12/26 05:57:15;;;;;;;6.60;2.60;;;-5.70;99.90;;;;;;5092381;28;20036;-68
2021/12/26 05:59:42;;;;;;;6.28;2.28;;;-5.70;99.90;;;;;;5111520;28;20040;-68
2021/12/26 06:02:08;;;;;;;6.40;2.50;;;-5.80;99.90;;;;;;5110073;28;20039;-68
2021/12/26 06:04:34;;;;;;;5.88;2.20;;;-5.80;99.90;;;;;;5097825;28;20400;-68
2021/12/26 06:06:59;;;;;;;6.88;2.70;;;-5.80;99.90;;;;;;5112504;27;20043;-68
2021/12/26 06:09:25;;;;;;;5.93;2.38;;;-5.80;99.90;;;;;;5110652;28;20027;-68
2021/12/26 06:11:51;;;;;;;6.13;2.55;;;-5.80;99.90;;;;;;5127374;27;21487;-68
2021/12/26 06:14:17;;;;;;;6.22;2.40;;;-5.90;99.90;;;;;;5084807;28;20047;-68
2021/12/26 06:16:43;;;;;;;6.25;2.08;;;-5.90;99.90;;;;;;5102309;28;20035;-68
2021/12/26 06:19:08;;;;;;;7.20;2.42;;;-5.90;99.90;;;;;;5111463;28;20044;-68
2021/12/26 06:21:34;;;;;;;5.40;2.30;;;-5.70;99.90;;;;;;5108395;28;20031;-68
2021/12/26 06:24:00;;;;;;;5.72;2.20;;;-5.70;99.90;;;;;;5132524;27;20072;-68
2021/12/26 06:26:28;;;;;;;7.10;2.47;;;-5.80;99.90;;;;;;5091045;28;20380;-68
2021/12/26 06:28:54;;;;;;;6.68;2.30;;;-5.60;99.90;;;;;;5091778;28;20035;-68
2021/12/26 06:31:19;;;;;;;5.60;2.47;;;-5.70;99.90;;;;;;5097519;28;20496;-68
2021/12/26 06:33:46;;;;;;;4.90;2.10;;;-5.70;99.90;;;;;;5078919;28;20031;-68
2021/12/26 06:36:13;;;;;;;6.30;2.60;;;-5.80;99.90;;;;;;5082760;28;20036;-68
2021/12/26 06:38:39;;;;;;;6.85;3.22;;;-5.70;99.90;;;;;;5116570;27;20492;-68
2021/12/26 06:41:07;;;;;;;7.80;2.97;;;-5.70;99.90;;;;;;5106705;28;20416;-68
2021/12/26 06:43:33;;;;;;;6.75;2.88;;;-5.70;99.90;;;;;;5077496;28;20066;-68
2021/12/26 06:46:00;;;;;;;7.03;2.75;;;-5.60;99.90;;;;;;5101251;28;20036;-68
2021/12/26 06:48:26;;;;;;;7.57;3.40;;;-5.70;99.90;;;;;;5125086;28;20047;-68
2021/12/26 06:50:52;;;;;;;4.78;2.75;;;-5.50;99.90;;;;;;5103056;28;20031;-68
2021/12/26 06:53:19;;;;;;;8.32;3.28;;;-5.60;98.70;;;;;;5105317;28;20605;-68
2021/12/26 06:55:45;;;;;;;7.75;2.85;;;-5.60;98.30;;;;;;5094222;28;20032;-68
2021/12/26 06:58:12;;;;;;;4.40;2.33;;;-5.50;99.60;;;;;;5099673;28;20488;-68
2021/12/26 07:00:38;;;;;;;8.13;3.30;;;-5.40;99.90;;;;;;5102488;28;20051;-68
2021/12/26 07:03:04;;;;;;;6.72;2.95;;;-5.50;98.30;;;;;;5099947;28;20105;-68
2021/12/26 07:05:29;;;;;;;6.30;2.80;;;-5.60;97.40;;;;;;5075129;28;20135;-68
2021/12/26 07:07:55;;;;;;;5.60;2.53;;;-5.50;99.10;;;;;;5107702;28;20082;-67
2021/12/26 07:10:21;;;;;;;7.40;3.10;;;-5.60;98.10;;;;;;5095120;28;20396;-68
2021/12/26 07:12:47;;;;;;;8.02;2.97;;;-5.60;97.70;;;;;;5139779;27;20031;-68
2021/12/26 07:15:13;;;;;;;8.80;3.15;;;-5.50;99.30;;;;;;5122303;27;20039;-68
2021/12/26 07:17:40;;;;;;;9.07;3.25;;;-5.50;98.70;;;;;;5090793;28;20047;-68
2021/12/26 07:20:07;;;;;;;6.53;3.25;;;-5.50;97.40;;;;;;5097567;28;20036;-68
2021/12/26 07:22:33;;;;;;;8.25;3.30;;;-5.50;98.60;;;;;;5083900;28;20039;-68
2021/12/26 07:24:59;;;;;;;6.50;2.90;;;-5.50;97.70;;;;;;5112328;28;20036;-68
2021/12/26 07:27:25;;;;;;;7.78;3.00;;;-5.50;98.30;;;;;;5095135;28;20032;-68
2021/12/26 07:29:50;;;;;;;8.32;2.97;;;-5.40;98.80;;;;;;5103590;28;20483;-68
2021/12/26 07:32:16;;;;;;;9.13;2.70;;;-5.40;97.30;;;;;;5111157;28;20040;-68
2021/12/26 07:34:41;;;;;;;8.40;3.28;;;-5.50;96.40;;;;;;5098928;28;20039;-67
2021/12/26 07:37:08;;;;;;;8.60;2.90;;;-5.50;96.90;;;;;;5113094;28;20498;-68
2021/12/26 07:39:33;;;;;;;8.85;3.67;;;-5.50;97.50;;;;;;5096963;28;20048;-68
2021/12/26 07:41:59;;;;;;;6.60;2.72;;;-5.50;97.30;;;;;;5111607;28;20056;-68
2021/12/26 07:44:25;;;;;;;7.25;2.92;;;-5.50;97.40;;;;;;5093070;28;20050;-68
2021/12/26 07:46:52;;;;;;;8.07;3.10;;;-5.40;98.40;;;;;;5115377;28;20059;-67
2021/12/26 07:49:18;;;;;;;7.72;3.33;;;-5.40;97.10;;;;;;5112257;28;20051;-68
2021/12/26 07:51:45;;;;;;;7.50;2.85;;;-5.40;96.70;;;;;;5097622;28;20085;-68
2021/12/26 07:54:13;;;;;;;8.50;2.80;;;-5.30;97.50;;;;;;5096806;28;20422;-68
2021/12/26 07:56:39;;;;;;;6.78;3.17;;;-5.30;97.90;;;;;;5122805;27;20418;-67
2021/12/26 07:59:05;;;;;;;8.15;3.28;;;-5.40;97.20;;;;;;5114907;28;20063;-67
2021/12/26 08:01:31;;;;;;;7.20;3.65;;;-5.40;96.60;;;;;;5094448;28;20135;-67
2021/12/26 08:04:00;;;;;;;7.95;3.53;;;-5.30;97.70;;;;;;5110278;27;20126;-67
2021/12/26 08:06:26;;;;;;;8.80;3.80;;;-5.30;97.10;;;;;;5088662;28;20062;-67
2021/12/26 08:08:51;;;;;;;6.93;3.20;;;-5.30;97.20;;;;;;5111919;28;20504;-67
2021/12/26 08:11:18;;;;;;;8.95;3.15;;;-5.30;97.50;;;;;;5113785;28;20063;-67
2021/12/26 08:13:44;;;;;;;6.20;2.90;;;-5.30;96.90;;;;;;5110294;28;20126;-68
2021/12/26 08:16:09;;;;;;;9.23;3.50;;;-5.20;98.60;;;;;;5108384;28;20384;-68
2021/12/26 08:18:35;;;;;;;6.28;3.08;;;-5.30;95.80;;;;;;5114227;28;20039;-68
2021/12/26 08:21:01;;;;;;;7.68;3.38;;;-5.30;97.00;;;;;;5111532;28;20036;-68
2021/12/26 08:23:27;;;;;;;5.63;2.42;;;-5.30;97.40;;;;;;5120085;27;20155;-67
2021/12/26 08:25:53;;;;;;;7.93;3.50;;;-5.30;98.20;;;;;;5083765;28;20111;-68
2021/12/26 08:28:20;;;;;;;5.97;2.80;;;-5.30;96.80;;;;;;5111968;28;20027;-67
2021/12/26 08:30:46;;;;;;;7.13;3.30;;;-5.30;98.60;;;;;;5110496;28;20039;-67
2021/12/26 08:33:12;;;;;;;6.65;3.28;;;-5.20;98.80;;;;;;5099172;28;20047;-68
2021/12/26 08:35:40;;;;;;;7.28;3.28;;;-5.10;98.90;;;;;;5131302;27;20483;-67
2021/12/26 08:38:06;;;;;;;8.60;3.50;;;-5.10;98.60;;;;;;5091033;28;20625;-67
2021/12/26 08:40:32;;;;;;;7.82;3.53;;;-5.20;98.50;;;;;;5108609;28;20035;-68
2021/12/26 08:42:57;;;;;;;7.97;3.70;;;-5.10;98.40;;;;;;5111228;28;20173;-77
2021/12/26 08:45:25;;;;;;;4.65;2.60;;;-5.10;97.40;;;;;;5113963;28;20040;-68
2021/12/26 08:47:52;;;;;;;7.63;3.50;;;-4.90;99.90;;;;;;5111864;28;20038;-68
2021/12/26 08:50:17;;;;;;;6.88;3.25;;;-4.80;98.10;;;;;;5111658;28;20048;-68
2021/12/26 08:52:43;;;;;;;10.95;5.00;;;-4.80;97.10;;;;;;5113951;28;20043;-68
2021/12/26 08:55:09;;;;;;;7.22;3.33;;;-4.90;96.80;;;;;;5095582;28;20113;-68
2021/12/26 08:57:35;;;;;;;6.97;3.75;;;-4.90;97.70;;;;;;5114250;27;20425;-68
2021/12/26 09:00:03;;;;;;;6.78;3.30;;;-4.80;99.10;;;;;;5129755;27;20118;-68
2021/12/26 09:02:29;;;;;;;7.28;3.13;;;-4.70;98.10;;;;;;5076276;28;20047;-68
2021/12/26 09:04:54;;;;;;;5.90;2.60;;;-4.70;97.30;;;;;;5107731;28;20035;-68
2021/12/26 09:07:20;;;;;;;6.47;3.50;;;-4.70;98.50;;;;;;5133408;27;20031;-68
2021/12/26 09:09:48;;;;;;;9.45;3.25;;;-4.60;98.30;;;;;;5093243;28;20123;-68
2021/12/26 09:12:14;;;;;;;7.95;3.28;;;-4.70;98.40;;;;;;5111580;28;20387;-68
2021/12/26 09:14:39;;;;;;;6.57;3.10;;;-4.60;98.50;;;;;;5130546;27;20035;-68
2021/12/26 09:17:07;;;;;;;6.18;2.97;;;-4.50;98.40;;;;;;5136541;27;20078;-68
2021/12/26 09:19:34;;;;;;;7.10;3.53;;;-4.50;98.70;;;;;;5075881;28;20046;-68
2021/12/26 09:22:03;;;;;;;6.68;3.30;;;-4.50;96.90;;;;;;5083062;28;20028;-68
2021/12/26 09:24:28;;;;;;;7.47;3.30;;;-4.50;96.30;;;;;;5096362;28;20418;-67
2021/12/26 09:26:54;;;;;;;6.65;3.28;;;-4.40;98.40;;;;;;5119026;27;20039;-68
2021/12/26 09:29:20;;;;;;;9.55;4.13;;;-4.30;98.40;;;;;;5096385;28;20404;-68
2021/12/26 09:31:46;;;;;;;7.55;3.85;;;-4.20;98.10;;;;;;5130661;27;20380;-68
2021/12/26 09:34:12;;;;;;;7.75;3.72;;;-4.20;97.20;;;;;;5112590;28;20036;-68
2021/12/26 09:36:37;;;;;;;6.25;3.53;;;-4.10;98.20;;;;;;5111019;28;20036;-68
2021/12/26 09:39:05;;;;;;;8.95;3.72;;;-4.10;98.00;;;;;;5110609;28;20143;-68
2021/12/26 09:41:30;;;;;;;7.97;3.97;;;-4.20;97.30;;;;;;5110322;28;20047;-68
2021/12/26 09:43:56;;;;;;;8.18;3.58;;;-4.20;94.80;;;;;;5095471;28;20047;-68
2021/12/26 09:46:22;;;;;;;9.10;4.30;;;-4.10;98.30;;;;;;5110949;28;20039;-68
2021/12/26 09:48:48;;;;;;;8.43;4.13;;;-4.00;97.60;;;;;;5144360;27;20115;-68
2021/12/26 09:51:13;;;;;;;9.48;4.05;;;-4.00;97.60;;;;;;5086223;28;20068;-68
2021/12/26 09:53:40;;;;;;;7.22;3.83;;;-4.00;97.30;;;;;;5074521;28;20472;-68
2021/12/26 09:56:07;;;;;;;9.10;3.95;;;-3.90;96.50;;;;;;5097921;28;20047;-68
2021/12/26 09:58:34;;;;;;;8.13;3.97;;;-3.90;96.80;;;;;;5100819;28;20106;-68
2021/12/26 10:01:01;;;;;;;7.75;4.07;;;-3.60;98.60;;;;;;5092016;28;20134;-68
2021/12/26 10:03:33;;;;;;;7.03;3.40;;;-3.70;94.50;;;;;;5074263;28;20040;-68
2021/12/26 10:06:10;;;;;;;8.35;3.58;;;-3.60;97.10;;;;;;5096998;28;20484;-68
2021/12/26 10:08:57;;;;;;;5.63;3.20;;;-3.50;96.40;;;;;;5111561;28;20560;-68
2021/12/26 10:11:39;;;;;;;7.43;3.58;;;-3.20;97.30;;;;;;5101515;28;20047;-68
2021/12/26 10:14:08;;;;;;;10.38;3.97;;;-3.20;95.60;;;;;;5097538;28;20036;-68
2021/12/26 10:16:41;;;;;;;7.82;3.88;;;-3.00;98.40;;;;;;5111313;28;20496;-68
2021/12/26 10:19:07;;;;;;;8.63;3.83;;;-2.90;97.00;;;;;;5080100;28;20504;-68
2021/12/26 10:21:55;;;;;;;7.28;3.53;;;-2.90;96.80;;;;;;5074620;28;20129;-68
2021/12/26 10:24:25;;;;;;;7.10;3.42;;;-2.90;95.50;;;;;;5087452;28;20452;-68
2021/12/26 10:26:54;;;;;;;7.40;3.55;;;-2.80;96.70;;;;;;5133737;27;20039;-68
2021/12/26 10:29:23;;;;;;;8.95;4.43;;;-2.60;98.90;;;;;;5104420;28;20035;-68
2021/12/26 10:31:49;;;;;;;7.80;3.88;;;-2.50;93.40;;;;;;5091049;28;20039;-68
2021/12/26 10:34:22;;;;;;;8.38;3.65;;;-2.50;94.80;;;;;;5127951;27;20043;-68
2021/12/26 10:36:49;;;;;;;8.65;3.67;;;-2.40;96.20;;;;;;5094086;28;20032;-68
2021/12/26 10:39:23;;;;;;;8.38;4.05;;;-2.20;97.80;;;;;;5106396;28;20035;-68
2021/12/26 10:41:54;;;;;;;8.25;3.88;;;-2.00;99.40;;;;;;5094173;28;20047;-68
2021/12/26 10:44:28;;;;;;;8.25;4.50;;;-2.00;95.70;;;;;;5111192;28;20077;-68
2021/12/26 10:46:59;;;;;;;6.65;3.33;;;-1.70;98.20;;;;;;5095068;28;20073;-68
2021/12/26 10:49:34;;;;;;;9.00;3.70;;;-1.50;98.30;;;;;;5113899;28;20040;-68
2021/12/26 10:52:01;;;;;;;8.10;3.70;;;-1.50;95.40;;;;;;5131644;27;20396;-68
2021/12/26 10:54:31;;;;;;;7.20;3.40;;;-1.60;90.80;;;;;;5104000;28;20097;-68
2021/12/26 10:57:12;;;;;;;8.57;4.13;;;-1.50;95.90;;;;;;5097737;28;20036;-68
2021/12/26 10:59:43;;;;;;;8.10;3.55;;;-1.30;95.70;;;;;;5094710;28;20032;-68
2021/12/26 11:02:09;;;;;;;7.78;3.90;;;-1.30;95.20;;;;;;5094287;28;20499;-68
2021/12/26 11:04:36;;;;;;;6.90;3.30;;;-1.20;95.20;;;;;;5114525;28;20131;-68
2021/12/26 11:07:08;;;;;;;8.35;3.63;;;-1.10;95.40;;;;;;5088789;28;20036;-68
2021/12/26 11:09:35;;;;;;;9.05;3.25;;;-1.20;94.50;;;;;;5088225;28;20038;-68
2021/12/26 11:12:03;;;;;;;8.02;2.97;;;-1.00;96.40;;;;;;5113071;28;20038;-68
2021/12/26 11:14:29;;;;;;;7.20;3.15;;;-1.00;95.50;;;;;;5114677;28;20075;-68
2021/12/26 11:16:55;;;;;;;8.50;4.30;;;-1.00;95.20;;;;;;5115100;28;20067;-68
2021/12/26 11:19:59;;;;;;;7.47;3.53;;;-1.20;91.80;;;;;;5098349;28;20035;-68
2021/12/26 11:22:26;;;;;;;10.13;4.00;;;-1.10;93.60;;;;;;5045534;28;20044;-68
2021/12/26 11:24:53;;;;;;;9.50;3.75;;;-1.10;94.50;;;;;;5055642;28;20044;-69
2021/12/26 11:27:23;;;;;;;7.13;3.42;;;-1.00;93.00;;;;;;5074699;28;20043;-68
2021/12/26 11:29:48;;;;;;;6.47;2.83;;;-1.00;93.30;;;;;;5112273;28;20035;-68
2021/12/26 11:32:16;;;;;;;7.70;3.75;;;-1.10;95.00;;;;;;5128778;27;20028;-68
2021/12/26 11:34:45;;;;;;;8.48;3.40;;;-1.10;94.80;;;;;;5077477;28;20127;-68
2021/12/26 11:37:11;;;;;;;7.28;3.78;;;-1.10;93.30;;;;;;5110603;28;20086;-69
2021/12/26 11:39:38;;;;;;;8.15;3.58;;;-1.10;95.20;;;;;;5095777;28;20070;-68
2021/12/26 11:42:59;;;;;;;7.95;4.05;;;-1.10;94.20;;;;;;5107134;28;20048;-68
2021/12/26 11:45:36;;;;;;;7.50;3.20;;;-1.00;93.70;;;;;;5094174;28;20036;-68
2021/12/26 11:48:36;;;;;;;8.75;3.80;;;-1.00;92.60;;;;;;5078572;28;20040;-68
2021/12/26 11:51:12;;;;;;;7.68;3.10;;;-1.10;94.20;;;;;;5076546;28;20040;-68
2021/12/26 11:54:07;;;;;;;6.53;2.88;;;-1.00;93.60;;;;;;5096866;28;20114;-69
2021/12/26 11:56:44;;;;;;;8.13;3.47;;;-1.10;93.80;;;;;;5075834;28;20059;-68
2021/12/26 11:59:48;;;;;;;6.32;3.03;;;-1.00;93.90;;;;;;5110363;28;20083;-68
2021/12/26 12:02:39;;;;;;;5.90;2.38;;;-1.10;92.40;;;;;;5101870;28;20093;-68
2021/12/26 12:05:44;;;;;;;7.47;3.55;;;-0.90;93.20;;;;;;5148255;27;20043;-68
2021/12/26 12:08:15;;;;;;;7.50;3.72;;;-1.10;92.70;;;;;;5095017;28;20044;-68
2021/12/26 12:10:46;;;;;;;7.68;3.28;;;-1.10;95.40;;;;;;5092279;28;21638;-68
2021/12/26 12:13:27;;;;;;;8.23;3.53;;;-1.10;95.40;;;;;;5134999;27;20050;-68
2021/12/26 12:15:57;;;;;;;7.65;3.30;;;-1.00;94.80;;;;;;5130549;27;20043;-68
2021/12/26 12:18:29;;;;;;;6.85;3.45;;;-0.80;92.80;;;;;;5076787;28;20438;-68
2021/12/26 12:21:16;;;;;;;7.32;3.60;;;-0.90;93.30;;;;;;5094013;28;20182;-69
2021/12/26 12:23:59;;;;;;;7.10;3.20;;;-0.80;94.90;;;;;;5110668;27;20059;-68
2021/12/26 12:26:56;;;;;;;7.57;3.67;;;-0.90;94.90;;;;;;5076375;28;20505;-68
2021/12/26 12:29:21;;;;;;;8.05;3.85;;;-1.00;95.30;;;;;;5097891;28;20503;-68
2021/12/26 12:31:47;;;;;;;4.50;2.05;;;-1.00;94.30;;;;;;5096394;28;20032;-69
2021/12/26 12:34:13;;;;;;;9.95;4.00;;;-0.80;95.00;;;;;;5113437;28;20487;-68
2021/12/26 12:36:42;;;;;;;8.05;3.35;;;-0.80;94.00;;;;;;5096078;28;20077;-69
2021/12/26 12:39:14;;;;;;;8.88;4.43;;;-0.80;95.80;;;;;;5096188;28;20039;-68
2021/12/26 12:41:44;;;;;;;7.38;3.35;;;-0.80;93.70;;;;;;5111496;28;20415;-68
2021/12/26 12:44:29;;;;;;;8.70;3.60;;;-0.90;93.70;;;;;;5099663;28;20454;-68
2021/12/26 12:46:58;;;;;;;9.00;4.07;;;-0.70;93.80;;;;;;5111802;28;20035;-69
2021/12/26 12:49:47;;;;;;;6.90;3.08;;;-0.80;95.70;;;;;;5113633;28;20391;-68
2021/12/26 12:52:36;;;;;;;8.63;4.40;;;-0.70;95.50;;;;;;5075893;28;20122;-74
2021/12/26 12:55:04;;;;;;;7.72;3.63;;;-0.70;98.60;;;;;;5108435;28;20365;-68
2021/12/26 12:57:39;;;;;;;7.72;3.20;;;-0.70;94.10;;;;;;5095886;28;20039;-68
2021/12/26 13:00:25;;;;;;;8.35;3.50;;;-0.70;94.60;;;;;;5103884;28;20166;-68